Time;durP1;ratioP1;P1;durP2;ratioP2;P2;SDS_P1;SDS_P2;PMS_P1;PMS_P2;Temp;Humidity;BMP_temperature;BMP_pressure;BME280_temperature;BME280_humidity;BME280_pressure;Samples;Min_cycle;Max_cycle;Signal;HPM_P1;HPM_P2
2023/09/01 00:01:46;;;;;;;20.10;6.60;;;13.60;99.90;;;;;;5072184;28;20449;-73
2023/09/01 00:04:12;;;;;;;16.30;5.85;;;13.70;99.90;;;;;;5073411;28;20386;-73
2023/09/01 00:06:37;;;;;;;8.13;5.10;;;13.80;99.90;;;;;;5074077;28;20376;-73
2023/09/01 00:09:04;;;;;;;16.83;6.17;;;13.90;99.90;;;;;;5073696;28;20392;-73
2023/09/01 00:11:29;;;;;;;13.40;6.18;;;14.00;99.90;;;;;;5072935;28;20384;-73
2023/09/01 00:13:55;;;;;;;11.38;5.47;;;14.00;99.90;;;;;;5073249;28;20383;-74
2023/09/01 00:16:20;;;;;;;12.90;5.90;;;14.00;99.90;;;;;;5073634;28;20435;-74
2023/09/01 00:18:46;;;;;;;13.60;6.10;;;14.10;99.90;;;;;;5073450;28;20768;-73
2023/09/01 00:21:12;;;;;;;11.77;5.70;;;14.10;97.10;;;;;;5072772;28;20474;-74
2023/09/01 00:23:37;;;;;;;14.93;5.63;;;14.20;98.60;;;;;;5072761;28;20383;-74
2023/09/01 00:26:03;;;;;;;11.48;5.40;;;14.20;95.00;;;;;;5072958;28;20426;-74
2023/09/01 00:28:28;;;;;;;12.73;5.40;;;14.30;94.40;;;;;;5071826;22;20443;-73
2023/09/01 00:30:56;;;;;;;10.87;5.43;;;14.30;91.10;;;;;;5032383;28;20743;-72
2023/09/01 00:33:24;;;;;;;8.85;5.03;;;14.40;93.60;;;;;;5034059;28;20372;-72
2023/09/01 00:35:51;;;;;;;10.75;5.55;;;14.50;87.60;;;;;;5033318;28;20408;-72
2023/09/01 00:38:17;;;;;;;11.45;5.30;;;14.50;86.50;;;;;;5033387;28;20390;-72
2023/09/01 00:40:42;;;;;;;10.60;5.57;;;14.60;84.50;;;;;;5033735;28;20383;-72
2023/09/01 00:43:08;;;;;;;9.50;5.30;;;14.50;85.30;;;;;;5033796;28;20387;-72
2023/09/01 00:45:54;;;;;;;13.65;5.57;;;14.50;83.90;;;;;;5032482;28;20724;-72
2023/09/01 00:48:19;;;;;;;13.63;5.70;;;14.50;85.50;;;;;;5032223;28;20383;-72
2023/09/01 00:50:49;;;;;;;13.93;5.22;;;14.50;85.00;;;;;;5032171;28;20402;-72
2023/09/01 00:53:15;;;;;;;16.40;5.60;;;14.60;83.80;;;;;;5031905;28;20383;-72
2023/09/01 00:55:41;;;;;;;13.23;4.70;;;14.60;84.00;;;;;;5031776;28;20403;-72
2023/09/01 00:58:06;;;;;;;10.10;4.90;;;14.60;83.50;;;;;;5031811;28;20473;-72
2023/09/01 01:00:33;;;;;;;11.80;5.10;;;14.60;84.10;;;;;;5031498;28;20452;-73
2023/09/01 01:03:05;;;;;;;12.60;5.70;;;14.60;81.40;;;;;;5031220;28;20379;-72
2023/09/01 01:06:13;;;;;;;11.40;5.20;;;14.60;80.50;;;;;;5031696;28;20407;-72
2023/09/01 01:08:56;;;;;;;8.40;5.00;;;14.60;79.80;;;;;;5031681;28;20718;-72
2023/09/01 01:11:43;;;;;;;14.65;5.13;;;14.60;80.80;;;;;;5030941;28;20383;-72
2023/09/01 01:14:23;;;;;;;8.90;5.00;;;14.60;80.80;;;;;;5031219;28;20387;-72
2023/09/01 01:16:50;;;;;;;17.98;5.40;;;14.70;81.00;;;;;;5031047;28;20406;-72
2023/09/01 01:19:36;;;;;;;9.13;4.82;;;14.70;81.00;;;;;;5030923;28;20791;-73
2023/09/01 01:22:04;;;;;;;13.85;5.22;;;14.70;80.60;;;;;;5030673;28;20379;-72
2023/09/01 01:24:30;;;;;;;8.23;5.20;;;14.70;80.00;;;;;;5030431;28;20462;-72
2023/09/01 01:26:55;;;;;;;12.63;5.07;;;14.70;79.20;;;;;;5030652;28;20402;-72
2023/09/01 01:29:21;;;;;;;7.55;4.70;;;14.80;78.90;;;;;;5030396;28;20407;-72
2023/09/01 01:31:46;;;;;;;12.30;4.80;;;14.80;79.00;;;;;;5030534;28;20449;-72
2023/09/01 01:34:29;;;;;;;8.53;5.00;;;15.00;78.50;;;;;;5030492;28;21018;-72
2023/09/01 01:37:10;;;;;;;7.73;5.13;;;15.10;76.70;;;;;;5030600;28;20472;-72
2023/09/01 01:39:38;;;;;;;13.07;4.97;;;15.00;75.20;;;;;;5029282;28;20450;-72
2023/09/01 01:42:13;;;;;;;10.70;5.15;;;15.00;75.10;;;;;;5030214;28;20383;-72
2023/09/01 01:44:43;;;;;;;11.40;5.93;;;14.80;78.00;;;;;;5030709;28;20375;-72
2023/09/01 01:47:11;;;;;;;13.93;5.00;;;14.80;78.80;;;;;;5030627;28;20411;-72
2023/09/01 01:49:36;;;;;;;9.05;4.88;;;14.80;79.30;;;;;;5030618;28;20409;-71
2023/09/01 01:52:02;;;;;;;15.38;5.10;;;14.80;79.20;;;;;;5030161;28;20391;-71
2023/09/01 01:54:29;;;;;;;10.63;5.00;;;14.70;81.10;;;;;;5030532;28;20399;-71
2023/09/01 01:56:55;;;;;;;11.05;5.28;;;14.70;82.50;;;;;;5030314;28;20406;-71
2023/09/01 01:59:20;;;;;;;11.50;4.88;;;14.70;82.70;;;;;;5028980;28;20876;-71
2023/09/01 02:01:46;;;;;;;8.87;5.10;;;14.70;82.10;;;;;;5030299;28;20387;-71
2023/09/01 02:04:12;;;;;;;12.93;4.90;;;14.70;82.20;;;;;;5029154;28;20903;-71
2023/09/01 02:06:37;;;;;;;8.63;4.90;;;14.70;80.50;;;;;;5030396;28;20472;-71
2023/09/01 02:09:03;;;;;;;9.07;4.90;;;14.80;79.30;;;;;;5030101;28;20471;-71
2023/09/01 02:11:29;;;;;;;9.57;5.75;;;14.70;80.90;;;;;;5030221;28;20394;-71
2023/09/01 02:13:55;;;;;;;10.57;4.90;;;14.80;79.80;;;;;;5030261;28;20391;-71
2023/09/01 02:16:24;;;;;;;9.73;5.20;;;14.80;80.20;;;;;;5030076;28;20509;-71
2023/09/01 02:18:53;;;;;;;12.20;4.90;;;14.90;80.00;;;;;;5030062;28;20399;-71
2023/09/01 02:21:20;;;;;;;8.87;4.60;;;14.80;80.10;;;;;;5029131;28;20410;-71
2023/09/01 02:23:49;;;;;;;10.73;5.32;;;14.80;81.60;;;;;;5030076;28;20406;-71
2023/09/01 02:26:19;;;;;;;10.02;5.15;;;14.80;83.40;;;;;;5029774;28;20391;-71
2023/09/01 02:28:45;;;;;;;9.45;5.00;;;14.90;79.00;;;;;;5029708;28;20426;-71
2023/09/01 02:31:10;;;;;;;10.65;5.50;;;14.90;79.80;;;;;;5029790;28;20417;-71
2023/09/01 02:33:36;;;;;;;8.05;4.60;;;14.90;80.90;;;;;;5030025;28;20391;-71
2023/09/01 02:36:21;;;;;;;8.95;4.85;;;14.90;80.40;;;;;;5029924;28;20494;-71
2023/09/01 02:38:46;;;;;;;12.48;5.05;;;14.90;80.90;;;;;;5033336;28;20378;-71
2023/09/01 02:41:12;;;;;;;13.35;5.47;;;15.00;81.20;;;;;;5033844;28;20948;-71
2023/09/01 02:43:37;;;;;;;15.20;5.00;;;15.00;79.90;;;;;;5033934;28;20463;-71
2023/09/01 02:46:04;;;;;;;11.00;5.03;;;15.20;79.60;;;;;;5033997;28;20817;-71
2023/09/01 02:48:30;;;;;;;12.85;5.32;;;15.20;79.30;;;;;;5033447;28;20418;-71
2023/09/01 02:50:56;;;;;;;11.13;5.30;;;15.20;79.20;;;;;;5033642;28;20385;-71
2023/09/01 02:53:21;;;;;;;10.98;4.57;;;15.20;78.50;;;;;;5034031;28;20386;-72
2023/09/01 02:55:47;;;;;;;10.75;4.85;;;15.20;79.50;;;;;;5033959;28;20427;-72
2023/09/01 02:58:12;;;;;;;7.93;4.53;;;15.20;79.30;;;;;;5033787;28;20379;-72
2023/09/01 03:00:38;;;;;;;6.97;4.50;;;15.20;79.40;;;;;;5034372;28;20387;-72
2023/09/01 03:03:04;;;;;;;9.90;5.07;;;15.30;78.80;;;;;;5033386;28;20435;-72
2023/09/01 03:05:29;;;;;;;11.98;4.70;;;15.20;80.20;;;;;;5033607;28;20575;-72
2023/09/01 03:07:57;;;;;;;7.65;4.53;;;15.20;81.20;;;;;;5033351;28;20387;-72
2023/09/01 03:10:23;;;;;;;11.07;5.07;;;15.30;80.10;;;;;;5033620;28;20418;-72
2023/09/01 03:12:49;;;;;;;9.43;4.40;;;15.30;80.90;;;;;;5033395;28;20390;-72
2023/09/01 03:15:15;;;;;;;14.07;5.10;;;15.30;81.30;;;;;;5034022;28;20892;-72
2023/09/01 03:17:40;;;;;;;6.60;4.60;;;15.30;80.20;;;;;;5034830;28;20379;-72
2023/09/01 03:20:09;;;;;;;12.45;4.70;;;15.30;81.30;;;;;;5034497;28;20380;-72
2023/09/01 03:22:35;;;;;;;9.30;4.72;;;15.50;78.40;;;;;;5034121;28;20743;-72
2023/09/01 03:25:01;;;;;;;9.07;4.32;;;15.40;78.30;;;;;;5033324;28;20479;-72
2023/09/01 03:27:26;;;;;;;13.20;4.90;;;15.40;80.30;;;;;;5034163;28;20767;-72
2023/09/01 03:29:55;;;;;;;10.67;5.13;;;15.30;82.10;;;;;;5033199;28;20394;-72
2023/09/01 03:32:22;;;;;;;7.35;4.50;;;15.30;82.40;;;;;;5032655;28;20379;-72
2023/09/01 03:34:48;;;;;;;10.50;5.00;;;15.30;82.70;;;;;;5033001;28;20793;-72
2023/09/01 03:37:13;;;;;;;9.80;4.88;;;15.30;82.80;;;;;;5032885;28;20414;-71
2023/09/01 03:39:39;;;;;;;13.20;5.25;;;15.40;82.20;;;;;;5032750;28;20379;-71
2023/09/01 03:42:05;;;;;;;15.02;5.30;;;15.40;83.70;;;;;;5032694;28;21078;-71
2023/09/01 03:44:30;;;;;;;9.00;4.82;;;15.30;84.10;;;;;;5032767;28;20387;-72
2023/09/01 03:46:56;;;;;;;8.13;5.10;;;15.30;85.20;;;;;;5032707;28;20462;-72
2023/09/01 03:49:22;;;;;;;10.38;5.03;;;15.30;84.70;;;;;;5032105;28;20398;-72
2023/09/01 03:51:47;;;;;;;11.63;5.30;;;15.30;86.40;;;;;;5032465;28;20383;-72
2023/09/01 03:54:13;;;;;;;6.90;4.80;;;15.30;88.40;;;;;;5032531;28;20394;-72
2023/09/01 03:56:38;;;;;;;9.77;5.03;;;15.40;85.70;;;;;;5032198;28;20765;-71
2023/09/01 03:59:04;;;;;;;11.67;5.17;;;15.30;85.70;;;;;;5032023;28;20388;-71
2023/09/01 04:01:30;;;;;;;12.27;5.60;;;15.20;87.60;;;;;;5032131;28;20888;-71
2023/09/01 04:03:56;;;;;;;8.40;6.33;;;15.20;88.70;;;;;;5032312;28;20393;-71
2023/09/01 04:06:22;;;;;;;11.50;5.25;;;15.20;89.30;;;;;;5031009;28;20422;-71
2023/09/01 04:08:47;;;;;;;8.48;4.90;;;15.20;91.40;;;;;;5032127;28;20809;-71
2023/09/01 04:11:13;;;;;;;11.13;5.47;;;15.10;92.60;;;;;;5032102;28;20463;-71
2023/09/01 04:13:39;;;;;;;10.23;5.30;;;15.10;93.50;;;;;;5032231;28;20383;-71
2023/09/01 04:16:04;;;;;;;7.28;4.80;;;15.10;93.70;;;;;;5032093;28;20407;-71
2023/09/01 04:18:32;;;;;;;10.57;5.60;;;15.10;95.00;;;;;;5032100;28;20895;-71
2023/09/01 04:20:57;;;;;;;8.10;5.20;;;15.10;96.50;;;;;;5032195;28;20752;-72
2023/09/01 04:23:23;;;;;;;8.50;5.20;;;15.10;95.10;;;;;;5032276;28;20391;-72
2023/09/01 04:25:49;;;;;;;10.05;5.22;;;15.10;96.80;;;;;;5032157;28;20395;-72
2023/09/01 04:28:16;;;;;;;12.27;5.22;;;15.10;96.50;;;;;;5032036;28;20910;-72
2023/09/01 04:30:43;;;;;;;9.37;5.20;;;15.10;98.40;;;;;;5031966;28;20449;-71
2023/09/01 04:33:09;;;;;;;9.57;5.80;;;15.20;95.70;;;;;;5031768;28;20423;-71
2023/09/01 04:35:34;;;;;;;15.48;5.45;;;15.20;95.30;;;;;;5032159;28;20447;-72
2023/09/01 04:38:00;;;;;;;11.10;4.93;;;15.20;96.10;;;;;;5031979;28;20897;-72
2023/09/01 04:40:26;;;;;;;10.73;5.23;;;15.20;96.00;;;;;;5030918;28;20380;-72
2023/09/01 04:42:52;;;;;;;10.80;5.40;;;15.10;96.70;;;;;;5031720;28;20422;-72
2023/09/01 04:45:18;;;;;;;8.52;5.50;;;15.10;97.60;;;;;;5030131;28;20395;-72
2023/09/01 04:47:44;;;;;;;9.63;5.50;;;15.10;98.00;;;;;;5031747;28;20413;-72
2023/09/01 04:50:10;;;;;;;9.67;5.00;;;15.10;98.20;;;;;;5031691;28;20397;-72
2023/09/01 04:52:36;;;;;;;9.88;5.20;;;15.30;95.20;;;;;;5031569;28;20395;-71
2023/09/01 04:55:03;;;;;;;12.13;5.85;;;15.20;95.90;;;;;;5031523;28;20399;-71
2023/09/01 04:57:30;;;;;;;10.05;5.50;;;15.20;96.30;;;;;;5031361;28;20759;-72
2023/09/01 04:59:56;;;;;;;12.38;5.88;;;15.30;97.10;;;;;;5030836;28;20395;-71
2023/09/01 05:02:22;;;;;;;9.85;5.60;;;15.20;97.90;;;;;;5031232;28;20409;-72
2023/09/01 05:04:47;;;;;;;13.52;5.40;;;15.40;97.00;;;;;;5031116;28;20391;-71
2023/09/01 05:07:13;;;;;;;10.02;5.57;;;15.40;97.00;;;;;;5030769;28;20383;-71
2023/09/01 05:09:38;;;;;;;8.87;5.30;;;15.40;95.70;;;;;;5031180;28;20398;-72
2023/09/01 05:12:04;;;;;;;8.40;5.43;;;15.50;94.60;;;;;;5031001;28;20395;-72
2023/09/01 05:14:30;;;;;;;8.98;5.20;;;15.60;93.00;;;;;;5031220;28;20820;-72
2023/09/01 05:16:56;;;;;;;9.07;4.80;;;15.60;93.90;;;;;;5031505;28;20419;-71
2023/09/01 05:19:22;;;;;;;8.23;4.75;;;15.70;94.70;;;;;;5030649;28;20430;-71
2023/09/01 05:21:48;;;;;;;12.00;5.40;;;15.80;95.50;;;;;;5030693;28;20387;-71
2023/09/01 05:24:14;;;;;;;10.15;5.47;;;15.80;97.20;;;;;;5028996;28;20531;-71
2023/09/01 05:26:39;;;;;;;11.77;5.97;;;15.80;99.30;;;;;;5030555;28;20811;-72
2023/09/01 05:29:05;;;;;;;7.17;5.50;;;15.70;99.00;;;;;;5030399;28;20408;-72
2023/09/01 05:31:30;;;;;;;9.70;5.90;;;15.80;99.90;;;;;;5030396;28;20427;-71
2023/09/01 05:33:56;;;;;;;12.68;5.97;;;15.80;99.60;;;;;;5030249;28;20391;-72
2023/09/01 05:36:21;;;;;;;7.88;5.15;;;15.70;99.90;;;;;;5030319;28;20902;-73
2023/09/01 05:38:47;;;;;;;8.53;5.77;;;15.60;99.90;;;;;;5030293;28;20379;-71
2023/09/01 05:41:14;;;;;;;11.97;5.70;;;15.60;99.90;;;;;;5028674;28;20387;-72
2023/09/01 05:43:39;;;;;;;13.68;6.97;;;15.60;99.90;;;;;;5030702;28;20390;-72
2023/09/01 05:46:05;;;;;;;7.20;5.43;;;15.70;99.90;;;;;;5028927;28;20872;-72
2023/09/01 05:48:30;;;;;;;12.00;5.70;;;15.70;99.90;;;;;;5030001;28;20784;-72
2023/09/01 05:50:56;;;;;;;11.47;5.10;;;15.90;99.90;;;;;;5030287;28;20807;-72
2023/09/01 05:53:22;;;;;;;8.70;5.20;;;16.10;95.70;;;;;;5029745;28;20399;-73
2023/09/01 05:55:48;;;;;;;10.82;5.65;;;16.20;94.60;;;;;;5031410;28;20406;-72
2023/09/01 05:58:13;;;;;;;9.80;5.43;;;16.30;92.10;;;;;;5029063;28;20403;-71
2023/09/01 06:00:40;;;;;;;30.13;19.13;;;16.40;89.30;;;;;;5030581;28;20383;-71
2023/09/01 06:03:05;;;;;;;12.68;6.10;;;16.50;89.30;;;;;;5048653;28;20922;-72
2023/09/01 06:05:31;;;;;;;28.23;16.70;;;16.60;85.30;;;;;;5031253;28;20417;-72
2023/09/01 06:07:57;;;;;;;22.30;14.50;;;16.60;83.60;;;;;;5029568;28;20398;-71
2023/09/01 06:10:23;;;;;;;39.92;26.70;;;16.70;84.40;;;;;;5030093;28;20399;-71
2023/09/01 06:12:48;;;;;;;23.67;16.50;;;16.70;86.40;;;;;;5029832;28;20403;-70
2023/09/01 06:15:14;;;;;;;19.03;12.93;;;16.80;81.70;;;;;;5031041;28;20379;-71
2023/09/01 06:17:40;;;;;;;37.97;24.03;;;16.90;79.80;;;;;;5031422;28;20534;-71
2023/09/01 06:20:06;;;;;;;16.20;11.60;;;16.90;81.20;;;;;;5032221;28;20677;-71
2023/09/01 06:22:33;;;;;;;10.00;6.90;;;17.00;78.60;;;;;;5040430;28;20813;-74
2023/09/01 06:24:58;;;;;;;10.50;4.83;;;17.20;77.70;;;;;;5053734;28;20465;-76
2023/09/01 06:27:24;;;;;;;9.53;5.40;;;17.30;74.80;;;;;;5044161;28;20812;-74
2023/09/01 06:29:49;;;;;;;10.20;5.35;;;17.40;72.80;;;;;;5044379;22;20435;-73
2023/09/01 06:32:15;;;;;;;7.10;3.60;;;17.50;72.20;;;;;;5030868;28;20402;-72
2023/09/01 06:34:41;;;;;;;6.80;5.20;;;17.50;69.90;;;;;;5030698;28;20819;-73
2023/09/01 06:37:06;;;;;;;13.60;8.70;;;17.60;69.40;;;;;;5030697;28;20922;-73
2023/09/01 06:39:32;;;;;;;9.48;5.60;;;17.60;69.30;;;;;;5030749;28;20458;-74
2023/09/01 06:41:58;;;;;;;6.47;4.00;;;17.80;66.50;;;;;;5030174;28;20730;-74
2023/09/01 06:44:23;;;;;;;8.93;4.50;;;17.80;64.20;;;;;;5030273;28;20793;-74
2023/09/01 06:46:49;;;;;;;9.03;4.90;;;17.90;66.30;;;;;;5030451;28;20894;-73
2023/09/01 06:49:15;;;;;;;6.40;4.07;;;18.00;65.10;;;;;;5031435;28;20387;-74
2023/09/01 06:51:41;;;;;;;7.57;4.28;;;18.00;64.10;;;;;;5030412;28;20605;-74
2023/09/01 06:54:06;;;;;;;5.20;3.55;;;18.10;65.10;;;;;;5029386;28;20417;-72
2023/09/01 06:56:32;;;;;;;8.37;4.20;;;18.10;61.30;;;;;;5030067;28;20447;-73
2023/09/01 06:58:57;;;;;;;5.53;3.70;;;18.20;61.50;;;;;;5030450;28;20387;-73
2023/09/01 07:01:23;;;;;;;7.18;3.60;;;18.10;62.10;;;;;;5030604;28;20398;-74
2023/09/01 07:03:48;;;;;;;4.97;3.70;;;18.10;62.40;;;;;;5030200;28;20398;-74
2023/09/01 07:06:14;;;;;;;5.90;3.70;;;18.00;61.90;;;;;;5030913;28;20393;-74
2023/09/01 07:08:39;;;;;;;9.93;3.22;;;18.00;62.10;;;;;;5029364;28;20402;-71
2023/09/01 07:11:10;;;;;;;5.83;3.60;;;18.00;62.10;;;;;;5029957;28;20379;-72
2023/09/01 07:13:36;;;;;;;7.68;3.30;;;18.10;63.10;;;;;;5030607;28;20476;-73
2023/09/01 07:16:01;;;;;;;8.07;3.55;;;18.30;60.00;;;;;;5030390;28;20433;-73
2023/09/01 07:18:28;;;;;;;4.90;3.30;;;18.40;58.60;;;;;;5030328;28;20399;-71
2023/09/01 07:20:58;;;;;;;6.17;3.10;;;18.60;57.60;;;;;;5028721;28;20419;-73
2023/09/01 07:23:24;;;;;;;7.97;3.30;;;18.70;56.40;;;;;;5030927;28;20873;-72
2023/09/01 07:25:49;;;;;;;4.97;2.92;;;18.80;54.60;;;;;;5033743;28;20392;-73
2023/09/01 07:28:15;;;;;;;6.18;3.40;;;18.80;54.00;;;;;;5032976;28;20501;-73
2023/09/01 07:30:41;;;;;;;6.17;3.00;;;18.90;54.70;;;;;;5034093;28;20403;-73
2023/09/01 07:33:07;;;;;;;5.00;3.15;;;18.90;53.20;;;;;;5033211;28;20387;-73
2023/09/01 07:35:32;;;;;;;6.20;3.17;;;19.00;52.50;;;;;;5033684;28;20410;-73
2023/09/01 07:37:58;;;;;;;4.80;3.25;;;18.90;53.40;;;;;;5034749;28;20387;-75
2023/09/01 07:40:24;;;;;;;5.50;3.40;;;18.80;54.00;;;;;;5034705;28;20743;-75
2023/09/01 07:42:50;;;;;;;7.70;3.63;;;18.70;54.20;;;;;;5033841;28;20391;-75
2023/09/01 07:45:15;;;;;;;5.55;3.22;;;18.70;54.70;;;;;;5034945;28;20387;-74
2023/09/01 07:47:42;;;;;;;6.47;3.20;;;18.70;55.30;;;;;;5024565;28;20741;-77
2023/09/01 07:50:08;;;;;;;4.20;3.30;;;18.70;55.70;;;;;;5032313;28;20484;-74
2023/09/01 07:52:34;;;;;;;6.03;3.20;;;18.80;55.10;;;;;;5038972;28;20405;-74
2023/09/01 07:55:00;;;;;;;8.23;3.90;;;19.00;54.60;;;;;;5036274;28;20819;-74
2023/09/01 07:57:25;;;;;;;17.73;6.83;;;19.10;54.40;;;;;;5055060;28;20405;-69
2023/09/01 07:59:51;;;;;;;12.73;3.92;;;19.40;52.40;;;;;;5044870;28;20406;-70
2023/09/01 08:02:16;;;;;;;6.03;3.30;;;19.50;52.50;;;;;;5035672;28;20398;-70
2023/09/01 08:04:43;;;;;;;6.10;3.50;;;19.50;50.20;;;;;;5038433;28;20382;-74
2023/09/01 08:07:09;;;;;;;6.25;3.80;;;19.50;50.10;;;;;;5039640;28;20486;-73
2023/09/01 08:09:34;;;;;;;8.02;3.30;;;19.40;51.60;;;;;;5016548;28;20427;-75
2023/09/01 08:12:00;;;;;;;6.50;3.50;;;19.20;52.40;;;;;;5032566;28;20399;-75
2023/09/01 08:14:25;;;;;;;7.40;3.72;;;18.90;54.90;;;;;;5036720;28;20391;-73
2023/09/01 08:16:51;;;;;;;6.50;3.37;;;18.70;56.40;;;;;;5035427;28;20414;-73
2023/09/01 08:19:16;;;;;;;9.77;5.60;;;18.90;56.40;;;;;;5050254;28;20693;-74
2023/09/01 08:21:42;;;;;;;6.13;4.50;;;18.80;57.20;;;;;;5053624;28;20381;-74
2023/09/01 08:24:08;;;;;;;9.73;6.90;;;18.60;60.60;;;;;;5038299;28;20387;-74
2023/09/01 08:26:33;;;;;;;12.75;6.57;;;18.50;65.00;;;;;;5033235;28;20387;-74
2023/09/01 08:28:59;;;;;;;6.10;4.75;;;18.40;66.90;;;;;;5053672;28;20877;-75
2023/09/01 08:31:25;;;;;;;8.85;4.75;;;18.40;69.10;;;;;;5046496;28;20407;-75
2023/09/01 08:33:51;;;;;;;7.37;5.00;;;18.40;70.50;;;;;;5032126;28;20399;-75
2023/09/01 08:36:17;;;;;;;10.43;5.20;;;18.30;72.80;;;;;;5032559;28;20411;-75
2023/09/01 08:38:43;;;;;;;8.77;4.78;;;18.20;74.80;;;;;;5033182;28;20386;-75
2023/09/01 08:41:09;;;;;;;9.50;5.32;;;18.10;79.10;;;;;;5032695;28;20397;-75
2023/09/01 08:43:39;;;;;;;8.30;4.90;;;18.00;79.80;;;;;;5033145;28;20384;-75
2023/09/01 08:46:06;;;;;;;12.70;6.00;;;17.90;82.70;;;;;;5032982;28;20394;-75
2023/09/01 08:48:33;;;;;;;8.48;5.45;;;17.80;86.70;;;;;;5030840;28;20493;-76
2023/09/01 08:50:58;;;;;;;9.73;5.70;;;17.70;87.70;;;;;;5030597;28;20402;-76
2023/09/01 08:53:25;;;;;;;8.30;6.13;;;17.70;90.70;;;;;;5032015;28;20479;-76
2023/09/01 08:55:52;;;;;;;10.27;5.82;;;17.80;91.50;;;;;;5033840;28;20429;-76
2023/09/01 08:58:18;;;;;;;9.45;5.55;;;17.80;91.90;;;;;;5032303;28;20445;-76
2023/09/01 09:00:44;;;;;;;9.60;6.03;;;17.80;92.90;;;;;;5033155;28;20383;-76
2023/09/01 09:03:13;;;;;;;8.07;5.53;;;17.80;94.70;;;;;;5032806;28;20429;-76
2023/09/01 09:05:39;;;;;;;7.90;5.30;;;17.80;94.40;;;;;;5033052;28;20868;-76
2023/09/01 09:08:07;;;;;;;11.63;6.30;;;17.60;97.50;;;;;;5032157;28;20470;-76
2023/09/01 09:10:41;;;;;;;11.85;6.47;;;17.60;99.90;;;;;;5032312;28;20383;-75
2023/09/01 09:13:24;;;;;;;8.52;5.55;;;17.50;99.90;;;;;;5031608;28;20407;-76
2023/09/01 09:16:16;;;;;;;7.63;5.50;;;17.40;99.90;;;;;;5031797;28;20442;-77
2023/09/01 09:18:44;;;;;;;6.37;5.47;;;17.30;99.90;;;;;;5029860;28;20399;-76
2023/09/01 09:21:39;;;;;;;9.00;5.05;;;17.20;99.90;;;;;;5031912;28;20398;-75
2023/09/01 09:24:05;;;;;;;8.90;5.70;;;17.20;99.90;;;;;;5023209;28;20490;-75
2023/09/01 09:26:32;;;;;;;8.48;5.32;;;17.20;99.90;;;;;;5027511;28;20439;-75
2023/09/01 09:29:06;;;;;;;6.65;4.85;;;17.20;99.90;;;;;;5012394;28;20435;-76
2023/09/01 09:31:36;;;;;;;8.27;5.10;;;17.30;99.90;;;;;;5012353;28;20481;-75
2023/09/01 09:34:19;;;;;;;6.68;4.93;;;17.30;99.90;;;;;;5029457;28;20399;-75
2023/09/01 09:36:47;;;;;;;4.97;4.47;;;17.30;99.90;;;;;;5029568;28;20411;-75
2023/09/01 09:39:24;;;;;;;11.05;4.90;;;17.30;99.90;;;;;;5027554;28;20391;-74
2023/09/01 09:41:50;;;;;;;5.68;4.35;;;17.30;99.90;;;;;;5028807;28;20472;-73
2023/09/01 09:44:31;;;;;;;11.13;6.28;;;17.40;99.90;;;;;;5025999;28;20863;-75
2023/09/01 09:46:57;;;;;;;5.95;3.90;;;17.50;99.90;;;;;;5027755;28;20391;-75
2023/09/01 09:49:24;;;;;;;5.53;4.15;;;17.40;99.90;;;;;;5014998;28;20407;-74
2023/09/01 09:51:51;;;;;;;7.95;4.70;;;17.40;99.90;;;;;;5029454;28;20403;-75
2023/09/01 09:54:21;;;;;;;5.40;3.88;;;17.50;99.90;;;;;;5035702;28;20387;-74
2023/09/01 09:56:52;;;;;;;7.97;4.90;;;17.50;99.90;;;;;;5037762;28;20431;-74
2023/09/01 09:59:26;;;;;;;7.32;4.15;;;17.60;99.90;;;;;;5039180;28;20444;-74
2023/09/01 10:01:54;;;;;;;5.63;4.53;;;17.70;99.90;;;;;;5036361;28;20414;-74
2023/09/01 10:04:20;;;;;;;6.22;3.80;;;17.70;99.90;;;;;;5032129;28;20399;-74
2023/09/01 10:06:46;;;;;;;4.10;3.40;;;17.70;99.90;;;;;;5034471;28;20403;-73
2023/09/01 10:09:13;;;;;;;6.40;3.40;;;17.70;99.90;;;;;;5034904;28;20394;-74
2023/09/01 10:11:41;;;;;;;5.68;3.35;;;17.70;99.90;;;;;;5021762;28;20862;-73
2023/09/01 10:14:08;;;;;;;4.10;3.60;;;17.80;99.90;;;;;;5012757;28;20396;-74
2023/09/01 10:16:34;;;;;;;5.50;3.20;;;17.80;99.90;;;;;;5017015;28;20804;-74
2023/09/01 10:19:00;;;;;;;4.30;2.90;;;17.90;99.90;;;;;;5015546;28;20472;-74
2023/09/01 10:21:25;;;;;;;3.60;3.30;;;17.90;99.90;;;;;;5010651;28;20479;-73
2023/09/01 10:23:52;;;;;;;4.85;3.60;;;17.90;99.90;;;;;;5012971;28;20439;-74
2023/09/01 10:26:26;;;;;;;6.35;3.45;;;17.90;99.90;;;;;;5012986;28;20455;-73
2023/09/01 10:29:00;;;;;;;2.87;2.63;;;17.90;99.90;;;;;;5014929;28;20404;-75
2023/09/01 10:31:26;;;;;;;5.50;2.70;;;17.90;99.90;;;;;;5022612;28;20421;-74
2023/09/01 10:34:14;;;;;;;4.75;2.90;;;18.00;99.90;;;;;;5019981;28;20456;-74
2023/09/01 10:36:45;;;;;;;5.22;3.38;;;18.10;99.90;;;;;;5012126;28;20492;-74
2023/09/01 10:39:16;;;;;;;3.97;3.28;;;18.20;99.90;;;;;;5010102;28;20897;-75
2023/09/01 10:42:07;;;;;;;3.90;2.90;;;18.30;99.90;;;;;;5011305;28;20391;-75
2023/09/01 10:44:39;;;;;;;3.63;2.60;;;18.40;99.90;;;;;;5011365;28;20463;-75
2023/09/01 10:47:30;;;;;;;5.43;2.80;;;18.40;99.90;;;;;;5012329;28;20384;-78
2023/09/01 10:49:59;;;;;;;3.17;2.70;;;18.40;99.90;;;;;;5008821;28;20393;-75
2023/09/01 10:52:28;;;;;;;7.18;2.78;;;18.40;99.90;;;;;;5012348;28;20392;-75
2023/09/01 10:54:59;;;;;;;4.45;3.38;;;18.50;99.90;;;;;;5012836;28;20384;-76
2023/09/01 10:57:43;;;;;;;6.88;3.78;;;18.50;99.90;;;;;;5011952;28;20405;-75
2023/09/01 11:00:29;;;;;;;4.10;3.30;;;18.70;99.90;;;;;;5014355;28;20463;-74
2023/09/01 11:03:29;;;;;;;5.75;4.25;;;18.80;99.90;;;;;;5014756;28;20865;-75
2023/09/01 11:06:01;;;;;;;5.22;3.50;;;18.90;99.90;;;;;;5014981;28;20817;-74
2023/09/01 11:08:27;;;;;;;4.88;3.95;;;19.00;97.60;;;;;;5013990;28;20381;-74
2023/09/01 11:10:55;;;;;;;4.40;2.53;;;19.30;90.30;;;;;;5013996;28;20392;-74
2023/09/01 11:13:22;;;;;;;3.05;2.40;;;19.40;89.20;;;;;;5014379;28;20392;-74
2023/09/01 11:15:50;;;;;;;2.30;2.10;;;19.50;88.10;;;;;;5014209;28;20415;-77
2023/09/01 11:18:24;;;;;;;3.50;2.40;;;19.50;86.60;;;;;;5015040;28;20388;-74
2023/09/01 11:20:54;;;;;;;3.50;2.50;;;19.60;85.70;;;;;;5014047;28;20435;-75
2023/09/01 11:23:24;;;;;;;3.00;2.30;;;19.60;86.30;;;;;;5014938;28;20418;-75
2023/09/01 11:25:57;;;;;;;2.80;2.42;;;19.70;86.70;;;;;;5014437;28;20435;-75
2023/09/01 11:28:26;;;;;;;2.75;2.35;;;19.80;84.70;;;;;;5014172;28;20428;-76
2023/09/01 11:30:57;;;;;;;5.20;2.65;;;19.90;83.80;;;;;;5014786;28;20451;-74
2023/09/01 11:33:25;;;;;;;4.03;2.80;;;20.00;78.10;;;;;;5015093;28;20886;-75
2023/09/01 11:36:09;;;;;;;3.83;3.13;;;19.90;80.30;;;;;;5013602;28;20477;-75
2023/09/01 11:38:35;;;;;;;3.50;2.60;;;19.80;81.50;;;;;;5013444;28;20432;-75
2023/09/01 11:41:02;;;;;;;4.00;2.93;;;19.70;83.80;;;;;;5013340;28;20511;-75
2023/09/01 11:43:28;;;;;;;3.60;2.90;;;19.60;85.40;;;;;;5013547;28;20460;-74
2023/09/01 11:45:54;;;;;;;4.80;3.30;;;19.70;86.20;;;;;;5014458;28;20906;-77
2023/09/01 11:48:24;;;;;;;4.07;3.20;;;19.90;85.10;;;;;;5015285;28;20397;-74
2023/09/01 11:50:57;;;;;;;3.80;3.40;;;19.90;84.50;;;;;;5029405;28;20813;-74
2023/09/01 11:53:27;;;;;;;4.93;3.70;;;19.90;85.60;;;;;;5013290;28;20392;-75
2023/09/01 11:56:02;;;;;;;6.28;4.10;;;20.00;83.30;;;;;;5013570;28;20851;-74
2023/09/01 11:58:34;;;;;;;3.92;3.10;;;19.90;85.80;;;;;;5012866;28;20417;-73
2023/09/01 12:01:10;;;;;;;6.07;4.10;;;19.90;85.40;;;;;;5012776;28;20435;-75
2023/09/01 12:03:37;;;;;;;6.60;4.20;;;19.80;86.10;;;;;;5013059;28;20393;-73
2023/09/01 12:06:13;;;;;;;7.22;5.10;;;19.80;86.20;;;;;;5012786;28;20544;-76
2023/09/01 12:08:39;;;;;;;7.00;4.80;;;19.80;87.70;;;;;;5012861;28;20742;-74
2023/09/01 12:11:05;;;;;;;8.53;4.90;;;19.90;87.50;;;;;;5011433;28;20393;-73
2023/09/01 12:13:31;;;;;;;6.10;4.75;;;20.00;86.90;;;;;;5012827;28;20397;-73
2023/09/01 12:16:01;;;;;;;6.80;4.40;;;20.30;83.80;;;;;;5012621;28;20885;-73
2023/09/01 12:18:38;;;;;;;6.78;4.65;;;20.30;81.20;;;;;;5012833;28;20388;-74
2023/09/01 12:21:06;;;;;;;5.90;4.90;;;20.40;80.30;;;;;;5013500;28;20392;-75
2023/09/01 12:23:33;;;;;;;7.40;5.05;;;20.50;80.70;;;;;;5012468;28;20888;-74
2023/09/01 12:26:01;;;;;;;8.88;5.40;;;20.60;79.90;;;;;;5027767;28;20559;-73
2023/09/01 12:28:28;;;;;;;8.75;6.10;;;20.70;77.40;;;;;;5012623;28;20392;-74
2023/09/01 12:30:55;;;;;;;9.00;5.90;;;20.90;73.90;;;;;;5018413;28;20406;-75
2023/09/01 12:33:21;;;;;;;10.23;5.53;;;21.10;72.60;;;;;;5032134;28;20401;-74
2023/09/01 12:35:46;;;;;;;5.80;4.30;;;21.30;71.30;;;;;;5031237;28;20399;-74
2023/09/01 12:38:12;;;;;;;8.40;6.15;;;21.50;68.20;;;;;;5026832;28;20403;-74
2023/09/01 12:40:37;;;;;;;9.93;5.43;;;21.50;70.30;;;;;;5031884;28;20405;-75
2023/09/01 12:43:03;;;;;;;6.32;5.18;;;21.50;70.10;;;;;;5031682;28;20386;-74
2023/09/01 12:45:32;;;;;;;5.60;4.20;;;21.60;66.00;;;;;;5031806;28;20402;-75
2023/09/01 12:47:59;;;;;;;6.15;4.10;;;21.80;64.70;;;;;;5031651;28;20802;-75